sensor_id;sensor_type;location;lat;lon;timestamp;P1;durP1;ratioP1;P2;durP2;ratioP2
3959;SDS011;1994;48.640;8.894;2022-08-19T00:01:55;18.37;;;11.30;;
3959;SDS011;1994;48.640;8.894;2022-08-19T00:04:24;15.80;;;11.73;;
3959;SDS011;1994;48.640;8.894;2022-08-19T00:06:58;18.30;;;11.60;;
3959;SDS011;1994;48.640;8.894;2022-08-19T00:09:25;20.20;;;10.53;;
3959;SDS011;1994;48.640;8.894;2022-08-19T00:11:52;19.77;;;12.43;;
3959;SDS011;1994;48.640;8.894;2022-08-19T00:14:20;18.07;;;11.57;;
3959;SDS011;1994;48.640;8.894;2022-08-19T00:16:49;22.33;;;12.83;;
3959;SDS011;1994;48.640;8.894;2022-08-19T00:19:19;17.80;;;12.17;;
3959;SDS011;1994;48.640;8.894;2022-08-19T00:21:46;16.57;;;11.20;;
3959;SDS011;1994;48.640;8.894;2022-08-19T00:24:13;16.77;;;12.10;;
3959;SDS011;1994;48.640;8.894;2022-08-19T00:26:40;19.80;;;12.37;;
3959;SDS011;1994;48.640;8.894;2022-08-19T00:29:08;20.73;;;12.60;;
3959;SDS011;1994;48.640;8.894;2022-08-19T00:31:37;16.57;;;11.33;;
3959;SDS011;1994;48.640;8.894;2022-08-19T00:34:03;18.77;;;12.53;;
3959;SDS011;1994;48.640;8.894;2022-08-19T00:36:29;16.90;;;10.50;;
3959;SDS011;1994;48.640;8.894;2022-08-19T00:38:55;20.27;;;12.80;;
3959;SDS011;1994;48.640;8.894;2022-08-19T00:41:21;19.40;;;12.57;;
3959;SDS011;1994;48.640;8.894;2022-08-19T00:44:03;18.30;;;12.33;;
3959;SDS011;1994;48.640;8.894;2022-08-19T00:46:50;22.27;;;13.07;;
3959;SDS011;1994;48.640;8.894;2022-08-19T00:52:29;22.07;;;14.20;;
3959;SDS011;1994;48.640;8.894;2022-08-19T00:55:04;22.07;;;13.30;;
3959;SDS011;1994;48.640;8.894;2022-08-19T00:57:38;20.70;;;13.80;;
3959;SDS011;1994;48.640;8.894;2022-08-19T01:00:09;24.57;;;13.87;;
3959;SDS011;1994;48.640;8.894;2022-08-19T01:02:40;26.47;;;15.50;;
3959;SDS011;1994;48.640;8.894;2022-08-19T01:05:09;33.27;;;15.23;;
3959;SDS011;1994;48.640;8.894;2022-08-19T01:07:43;22.30;;;13.90;;
3959;SDS011;1994;48.640;8.894;2022-08-19T01:10:11;18.70;;;12.57;;
3959;SDS011;1994;48.640;8.894;2022-08-19T01:12:40;23.87;;;13.60;;
3959;SDS011;1994;48.640;8.894;2022-08-19T01:15:07;24.40;;;13.73;;
3959;SDS011;1994;48.640;8.894;2022-08-19T01:17:38;25.03;;;17.30;;
3959;SDS011;1994;48.640;8.894;2022-08-19T01:20:12;19.57;;;13.63;;
3959;SDS011;1994;48.640;8.894;2022-08-19T01:22:46;23.10;;;13.40;;
3959;SDS011;1994;48.640;8.894;2022-08-19T01:25:17;20.83;;;13.03;;
3959;SDS011;1994;48.640;8.894;2022-08-19T01:27:48;22.60;;;13.40;;
3959;SDS011;1994;48.640;8.894;2022-08-19T01:30:18;21.27;;;14.20;;
3959;SDS011;1994;48.640;8.894;2022-08-19T01:32:50;20.63;;;13.53;;
3959;SDS011;1994;48.640;8.894;2022-08-19T01:35:20;25.63;;;13.83;;
3959;SDS011;1994;48.640;8.894;2022-08-19T01:37:53;22.77;;;14.20;;
3959;SDS011;1994;48.640;8.894;2022-08-19T01:40:25;21.37;;;13.50;;
3959;SDS011;1994;48.640;8.894;2022-08-19T01:42:59;22.47;;;14.20;;
3959;SDS011;1994;48.640;8.894;2022-08-19T01:45:27;20.70;;;13.10;;
3959;SDS011;1994;48.640;8.894;2022-08-19T01:47:58;24.40;;;14.93;;
3959;SDS011;1994;48.640;8.894;2022-08-19T01:50:25;28.77;;;16.17;;
3959;SDS011;1994;48.640;8.894;2022-08-19T01:52:52;31.23;;;14.80;;
3959;SDS011;1994;48.640;8.894;2022-08-19T01:55:19;20.77;;;12.90;;
3959;SDS011;1994;48.640;8.894;2022-08-19T01:57:52;23.63;;;14.90;;
3959;SDS011;1994;48.640;8.894;2022-08-19T02:00:25;22.83;;;14.70;;
3959;SDS011;1994;48.640;8.894;2022-08-19T02:03:02;22.90;;;14.00;;
3959;SDS011;1994;48.640;8.894;2022-08-19T02:05:27;23.33;;;14.87;;
3959;SDS011;1994;48.640;8.894;2022-08-19T02:07:54;24.50;;;15.20;;
3959;SDS011;1994;48.640;8.894;2022-08-19T02:10:21;21.53;;;14.50;;
3959;SDS011;1994;48.640;8.894;2022-08-19T02:12:51;32.60;;;16.50;;
3959;SDS011;1994;48.640;8.894;2022-08-19T02:15:17;24.80;;;14.40;;
3959;SDS011;1994;48.640;8.894;2022-08-19T02:17:44;25.87;;;15.90;;
3959;SDS011;1994;48.640;8.894;2022-08-19T02:20:11;23.83;;;16.00;;
3959;SDS011;1994;48.640;8.894;2022-08-19T02:22:38;24.33;;;14.50;;
3959;SDS011;1994;48.640;8.894;2022-08-19T02:25:07;24.93;;;14.17;;
3959;SDS011;1994;48.640;8.894;2022-08-19T02:27:39;26.90;;;15.30;;
3959;SDS011;1994;48.640;8.894;2022-08-19T02:30:11;22.20;;;14.43;;
3959;SDS011;1994;48.640;8.894;2022-08-19T02:32:41;25.13;;;14.33;;
3959;SDS011;1994;48.640;8.894;2022-08-19T02:35:07;21.50;;;14.13;;
3959;SDS011;1994;48.640;8.894;2022-08-19T02:37:34;24.13;;;15.30;;
3959;SDS011;1994;48.640;8.894;2022-08-19T02:40:18;25.30;;;14.27;;
3959;SDS011;1994;48.640;8.894;2022-08-19T02:42:44;24.27;;;13.83;;
3959;SDS011;1994;48.640;8.894;2022-08-19T02:45:13;25.90;;;15.43;;
3959;SDS011;1994;48.640;8.894;2022-08-19T02:47:40;22.57;;;14.67;;
3959;SDS011;1994;48.640;8.894;2022-08-19T02:50:06;23.33;;;15.30;;
3959;SDS011;1994;48.640;8.894;2022-08-19T02:52:33;26.47;;;14.80;;
3959;SDS011;1994;48.640;8.894;2022-08-19T02:54:59;24.00;;;14.90;;
3959;SDS011;1994;48.640;8.894;2022-08-19T02:57:26;24.80;;;16.23;;
3959;SDS011;1994;48.640;8.894;2022-08-19T02:59:52;28.60;;;16.87;;
3959;SDS011;1994;48.640;8.894;2022-08-19T03:02:18;27.40;;;15.20;;
3959;SDS011;1994;48.640;8.894;2022-08-19T03:04:44;25.73;;;14.47;;
3959;SDS011;1994;48.640;8.894;2022-08-19T03:07:13;24.87;;;14.57;;
3959;SDS011;1994;48.640;8.894;2022-08-19T03:09:43;23.10;;;14.70;;
3959;SDS011;1994;48.640;8.894;2022-08-19T03:12:09;25.73;;;15.90;;
3959;SDS011;1994;48.640;8.894;2022-08-19T03:14:36;25.33;;;14.70;;
3959;SDS011;1994;48.640;8.894;2022-08-19T03:17:02;26.53;;;15.57;;
3959;SDS011;1994;48.640;8.894;2022-08-19T03:19:29;24.60;;;15.03;;
3959;SDS011;1994;48.640;8.894;2022-08-19T03:22:01;24.47;;;15.73;;
3959;SDS011;1994;48.640;8.894;2022-08-19T03:24:29;20.93;;;14.17;;
3959;SDS011;1994;48.640;8.894;2022-08-19T03:26:55;28.67;;;16.73;;
3959;SDS011;1994;48.640;8.894;2022-08-19T03:29:22;29.57;;;17.60;;
3959;SDS011;1994;48.640;8.894;2022-08-19T03:31:50;29.60;;;17.07;;
3959;SDS011;1994;48.640;8.894;2022-08-19T03:34:20;26.60;;;16.33;;
3959;SDS011;1994;48.640;8.894;2022-08-19T03:36:52;26.53;;;16.23;;
3959;SDS011;1994;48.640;8.894;2022-08-19T03:39:19;25.43;;;16.17;;
3959;SDS011;1994;48.640;8.894;2022-08-19T03:41:50;25.90;;;16.47;;
3959;SDS011;1994;48.640;8.894;2022-08-19T03:44:25;27.73;;;18.10;;
3959;SDS011;1994;48.640;8.894;2022-08-19T03:46:54;29.20;;;18.03;;
3959;SDS011;1994;48.640;8.894;2022-08-19T03:49:23;30.17;;;18.13;;
3959;SDS011;1994;48.640;8.894;2022-08-19T03:51:53;28.07;;;18.17;;
3959;SDS011;1994;48.640;8.894;2022-08-19T03:54:22;36.77;;;18.80;;
3959;SDS011;1994;48.640;8.894;2022-08-19T03:56:50;31.60;;;18.83;;
3959;SDS011;1994;48.640;8.894;2022-08-19T03:59:51;31.63;;;18.63;;
3959;SDS011;1994;48.640;8.894;2022-08-19T04:02:11;30.73;;;17.20;;
3959;SDS011;1994;48.640;8.894;2022-08-19T04:04:38;28.33;;;17.30;;
3959;SDS011;1994;48.640;8.894;2022-08-19T04:07:07;37.10;;;18.23;;
3959;SDS011;1994;48.640;8.894;2022-08-19T04:09:35;35.17;;;18.03;;
3959;SDS011;1994;48.640;8.894;2022-08-19T04:12:04;29.20;;;17.10;;
3959;SDS011;1994;48.640;8.894;2022-08-19T04:14:36;31.13;;;18.60;;
3959;SDS011;1994;48.640;8.894;2022-08-19T04:17:02;33.07;;;18.43;;
3959;SDS011;1994;48.640;8.894;2022-08-19T04:19:32;27.43;;;18.40;;
3959;SDS011;1994;48.640;8.894;2022-08-19T04:21:59;33.40;;;18.93;;
3959;SDS011;1994;48.640;8.894;2022-08-19T04:24:26;32.10;;;18.67;;
3959;SDS011;1994;48.640;8.894;2022-08-19T04:26:52;38.40;;;18.57;;
3959;SDS011;1994;48.640;8.894;2022-08-19T04:29:19;34.33;;;19.50;;
3959;SDS011;1994;48.640;8.894;2022-08-19T04:31:49;28.90;;;17.13;;
3959;SDS011;1994;48.640;8.894;2022-08-19T04:34:20;32.30;;;17.63;;
3959;SDS011;1994;48.640;8.894;2022-08-19T04:36:49;29.00;;;18.70;;
3959;SDS011;1994;48.640;8.894;2022-08-19T04:39:18;31.33;;;18.00;;
3959;SDS011;1994;48.640;8.894;2022-08-19T04:41:48;30.97;;;17.40;;
3959;SDS011;1994;48.640;8.894;2022-08-19T04:44:32;26.27;;;17.50;;
3959;SDS011;1994;48.640;8.894;2022-08-19T04:47:03;28.53;;;17.53;;
3959;SDS011;1994;48.640;8.894;2022-08-19T04:49:30;32.97;;;17.87;;
3959;SDS011;1994;48.640;8.894;2022-08-19T04:51:56;30.67;;;18.17;;
3959;SDS011;1994;48.640;8.894;2022-08-19T04:54:25;28.77;;;17.37;;
3959;SDS011;1994;48.640;8.894;2022-08-19T04:56:51;30.20;;;18.07;;
3959;SDS011;1994;48.640;8.894;2022-08-19T04:59:18;32.50;;;18.10;;
3959;SDS011;1994;48.640;8.894;2022-08-19T05:01:45;28.00;;;18.90;;
3959;SDS011;1994;48.640;8.894;2022-08-19T05:04:15;32.63;;;17.80;;
3959;SDS011;1994;48.640;8.894;2022-08-19T05:06:44;40.60;;;20.10;;
3959;SDS011;1994;48.640;8.894;2022-08-19T05:09:14;37.47;;;19.33;;
3959;SDS011;1994;48.640;8.894;2022-08-19T05:11:40;34.27;;;18.03;;
3959;SDS011;1994;48.640;8.894;2022-08-19T05:14:07;29.40;;;17.50;;
3959;SDS011;1994;48.640;8.894;2022-08-19T05:16:34;43.40;;;18.57;;
3959;SDS011;1994;48.640;8.894;2022-08-19T05:19:00;29.67;;;18.93;;
3959;SDS011;1994;48.640;8.894;2022-08-19T05:21:44;26.37;;;17.77;;
3959;SDS011;1994;48.640;8.894;2022-08-19T05:24:30;33.90;;;18.93;;
3959;SDS011;1994;48.640;8.894;2022-08-19T05:26:59;31.00;;;18.30;;
3959;SDS011;1994;48.640;8.894;2022-08-19T05:29:30;30.03;;;18.23;;
3959;SDS011;1994;48.640;8.894;2022-08-19T05:31:56;28.03;;;17.87;;
3959;SDS011;1994;48.640;8.894;2022-08-19T05:34:23;28.80;;;16.20;;
3959;SDS011;1994;48.640;8.894;2022-08-19T05:36:51;24.63;;;16.30;;
3959;SDS011;1994;48.640;8.894;2022-08-19T05:39:26;28.07;;;17.87;;
3959;SDS011;1994;48.640;8.894;2022-08-19T05:41:56;34.10;;;18.30;;
3959;SDS011;1994;48.640;8.894;2022-08-19T05:44:33;31.20;;;18.50;;
3959;SDS011;1994;48.640;8.894;2022-08-19T05:47:03;28.13;;;17.90;;
3959;SDS011;1994;48.640;8.894;2022-08-19T05:49:31;27.43;;;17.97;;
3959;SDS011;1994;48.640;8.894;2022-08-19T05:51:58;30.17;;;19.93;;
3959;SDS011;1994;48.640;8.894;2022-08-19T05:54:26;35.30;;;18.83;;
3959;SDS011;1994;48.640;8.894;2022-08-19T05:56:52;31.63;;;18.17;;
3959;SDS011;1994;48.640;8.894;2022-08-19T05:59:19;32.30;;;19.80;;
3959;SDS011;1994;48.640;8.894;2022-08-19T06:01:48;27.80;;;18.47;;
3959;SDS011;1994;48.640;8.894;2022-08-19T06:04:18;34.37;;;18.80;;
3959;SDS011;1994;48.640;8.894;2022-08-19T06:06:45;29.00;;;16.93;;
3959;SDS011;1994;48.640;8.894;2022-08-19T06:09:13;40.87;;;19.00;;
3959;SDS011;1994;48.640;8.894;2022-08-19T06:11:44;33.30;;;16.97;;
3959;SDS011;1994;48.640;8.894;2022-08-19T06:14:15;24.60;;;16.20;;
3959;SDS011;1994;48.640;8.894;2022-08-19T06:16:44;31.23;;;17.80;;
3959;SDS011;1994;48.640;8.894;2022-08-19T06:19:12;31.20;;;18.03;;
3959;SDS011;1994;48.640;8.894;2022-08-19T06:21:42;34.27;;;19.33;;
3959;SDS011;1994;48.640;8.894;2022-08-19T06:24:12;27.63;;;18.43;;
3959;SDS011;1994;48.640;8.894;2022-08-19T06:26:42;31.67;;;17.27;;
3959;SDS011;1994;48.640;8.894;2022-08-19T06:29:12;28.03;;;16.27;;
3959;SDS011;1994;48.640;8.894;2022-08-19T06:31:42;30.97;;;17.00;;
3959;SDS011;1994;48.640;8.894;2022-08-19T06:34:10;31.90;;;17.07;;
3959;SDS011;1994;48.640;8.894;2022-08-19T06:36:40;30.13;;;18.20;;
3959;SDS011;1994;48.640;8.894;2022-08-19T06:39:10;29.10;;;17.77;;
3959;SDS011;1994;48.640;8.894;2022-08-19T06:41:42;24.63;;;15.27;;
3959;SDS011;1994;48.640;8.894;2022-08-19T06:44:21;27.47;;;16.67;;
3959;SDS011;1994;48.640;8.894;2022-08-19T06:46:54;23.00;;;14.60;;
3959;SDS011;1994;48.640;8.894;2022-08-19T06:49:21;28.77;;;17.20;;
3959;SDS011;1994;48.640;8.894;2022-08-19T06:51:56;24.00;;;16.00;;
3959;SDS011;1994;48.640;8.894;2022-08-19T06:54:23;24.87;;;16.63;;
3959;SDS011;1994;48.640;8.894;2022-08-19T06:56:50;28.63;;;17.50;;
3959;SDS011;1994;48.640;8.894;2022-08-19T06:59:20;25.27;;;16.40;;
3959;SDS011;1994;48.640;8.894;2022-08-19T07:01:52;30.97;;;17.67;;
3959;SDS011;1994;48.640;8.894;2022-08-19T07:04:30;28.80;;;16.60;;
3959;SDS011;1994;48.640;8.894;2022-08-19T07:07:03;28.03;;;16.17;;
3959;SDS011;1994;48.640;8.894;2022-08-19T07:09:34;23.83;;;16.87;;
3959;SDS011;1994;48.640;8.894;2022-08-19T07:12:03;22.90;;;15.30;;
3959;SDS011;1994;48.640;8.894;2022-08-19T07:14:31;22.30;;;15.03;;
3959;SDS011;1994;48.640;8.894;2022-08-19T07:17:02;24.77;;;15.30;;
3959;SDS011;1994;48.640;8.894;2022-08-19T07:19:32;26.40;;;16.00;;
3959;SDS011;1994;48.640;8.894;2022-08-19T07:22:03;25.73;;;15.30;;
3959;SDS011;1994;48.640;8.894;2022-08-19T07:24:37;23.10;;;16.20;;
3959;SDS011;1994;48.640;8.894;2022-08-19T07:27:03;24.03;;;15.30;;
3959;SDS011;1994;48.640;8.894;2022-08-19T07:29:32;21.00;;;14.13;;
3959;SDS011;1994;48.640;8.894;2022-08-19T07:32:00;28.23;;;14.50;;
3959;SDS011;1994;48.640;8.894;2022-08-19T07:34:29;25.00;;;14.17;;
3959;SDS011;1994;48.640;8.894;2022-08-19T07:36:56;24.27;;;14.53;;
3959;SDS011;1994;48.640;8.894;2022-08-19T07:39:26;26.17;;;16.23;;
3959;SDS011;1994;48.640;8.894;2022-08-19T07:41:55;22.60;;;14.20;;
3959;SDS011;1994;48.640;8.894;2022-08-19T07:44:23;21.97;;;13.80;;
3959;SDS011;1994;48.640;8.894;2022-08-19T07:46:50;26.07;;;14.20;;
3959;SDS011;1994;48.640;8.894;2022-08-19T07:49:19;21.37;;;13.60;;
3959;SDS011;1994;48.640;8.894;2022-08-19T07:51:46;27.13;;;13.73;;
3959;SDS011;1994;48.640;8.894;2022-08-19T07:54:16;22.20;;;13.13;;
3959;SDS011;1994;48.640;8.894;2022-08-19T07:56:44;21.03;;;13.13;;
3959;SDS011;1994;48.640;8.894;2022-08-19T07:59:10;22.10;;;14.97;;
3959;SDS011;1994;48.640;8.894;2022-08-19T08:01:37;27.07;;;13.00;;
3959;SDS011;1994;48.640;8.894;2022-08-19T08:04:05;27.87;;;14.40;;
3959;SDS011;1994;48.640;8.894;2022-08-19T08:06:51;21.50;;;12.67;;
3959;SDS011;1994;48.640;8.894;2022-08-19T08:09:37;24.00;;;12.27;;
3959;SDS011;1994;48.640;8.894;2022-08-19T08:12:07;18.57;;;12.60;;
3959;SDS011;1994;48.640;8.894;2022-08-19T08:14:59;18.70;;;12.23;;
3959;SDS011;1994;48.640;8.894;2022-08-19T08:17:29;20.80;;;14.33;;
3959;SDS011;1994;48.640;8.894;2022-08-19T08:19:56;21.17;;;12.33;;
3959;SDS011;1994;48.640;8.894;2022-08-19T08:22:22;19.07;;;11.63;;
3959;SDS011;1994;48.640;8.894;2022-08-19T08:25:09;18.33;;;12.40;;
3959;SDS011;1994;48.640;8.894;2022-08-19T08:27:42;21.50;;;12.23;;
3959;SDS011;1994;48.640;8.894;2022-08-19T08:30:30;20.07;;;12.60;;
3959;SDS011;1994;48.640;8.894;2022-08-19T08:32:58;18.80;;;14.07;;
3959;SDS011;1994;48.640;8.894;2022-08-19T08:35:30;19.77;;;13.00;;
3959;SDS011;1994;48.640;8.894;2022-08-19T08:37:56;19.77;;;12.80;;
3959;SDS011;1994;48.640;8.894;2022-08-19T08:43:09;20.90;;;12.73;;
3959;SDS011;1994;48.640;8.894;2022-08-19T08:46:01;18.23;;;12.60;;
3959;SDS011;1994;48.640;8.894;2022-08-19T08:48:48;19.47;;;12.77;;
3959;SDS011;1994;48.640;8.894;2022-08-19T08:51:34;24.53;;;11.90;;
3959;SDS011;1994;48.640;8.894;2022-08-19T08:54:10;16.03;;;10.90;;
3959;SDS011;1994;48.640;8.894;2022-08-19T08:56:39;21.43;;;11.83;;
3959;SDS011;1994;48.640;8.894;2022-08-19T08:59:10;18.70;;;12.00;;
3959;SDS011;1994;48.640;8.894;2022-08-19T09:01:51;18.37;;;12.30;;
3959;SDS011;1994;48.640;8.894;2022-08-19T09:04:20;32.13;;;13.70;;
3959;SDS011;1994;48.640;8.894;2022-08-19T09:07:02;19.33;;;12.33;;
3959;SDS011;1994;48.640;8.894;2022-08-19T09:10:10;14.80;;;11.30;;
3959;SDS011;1994;48.640;8.894;2022-08-19T09:16:02;23.63;;;12.90;;
3959;SDS011;1994;48.640;8.894;2022-08-19T09:18:40;24.60;;;13.90;;
3959;SDS011;1994;48.640;8.894;2022-08-19T09:21:19;27.43;;;13.93;;
3959;SDS011;1994;48.640;8.894;2022-08-19T09:23:47;23.20;;;14.03;;
3959;SDS011;1994;48.640;8.894;2022-08-19T09:26:15;18.33;;;12.83;;
3959;SDS011;1994;48.640;8.894;2022-08-19T09:28:45;20.73;;;14.30;;
3959;SDS011;1994;48.640;8.894;2022-08-19T09:31:14;20.00;;;14.10;;
3959;SDS011;1994;48.640;8.894;2022-08-19T09:33:48;20.13;;;14.63;;
3959;SDS011;1994;48.640;8.894;2022-08-19T09:36:15;19.40;;;12.03;;
3959;SDS011;1994;48.640;8.894;2022-08-19T09:38:44;19.47;;;14.47;;
3959;SDS011;1994;48.640;8.894;2022-08-19T09:41:14;20.40;;;12.80;;
3959;SDS011;1994;48.640;8.894;2022-08-19T09:43:47;22.30;;;13.00;;
3959;SDS011;1994;48.640;8.894;2022-08-19T09:46:20;18.80;;;13.20;;
3959;SDS011;1994;48.640;8.894;2022-08-19T09:48:48;17.67;;;13.07;;
3959;SDS011;1994;48.640;8.894;2022-08-19T09:51:17;16.43;;;12.67;;
3959;SDS011;1994;48.640;8.894;2022-08-19T09:53:47;21.10;;;12.63;;
3959;SDS011;1994;48.640;8.894;2022-08-19T09:56:19;18.80;;;13.37;;
3959;SDS011;1994;48.640;8.894;2022-08-19T09:58:47;18.33;;;12.77;;
3959;SDS011;1994;48.640;8.894;2022-08-19T10:01:23;20.67;;;13.17;;
3959;SDS011;1994;48.640;8.894;2022-08-19T10:03:55;19.10;;;12.33;;
3959;SDS011;1994;48.640;8.894;2022-08-19T10:06:23;19.33;;;11.90;;
3959;SDS011;1994;48.640;8.894;2022-08-19T10:08:54;24.60;;;13.77;;
3959;SDS011;1994;48.640;8.894;2022-08-19T10:11:22;18.20;;;13.10;;
3959;SDS011;1994;48.640;8.894;2022-08-19T10:13:51;22.70;;;14.20;;
3959;SDS011;1994;48.640;8.894;2022-08-19T10:16:21;20.73;;;13.40;;
3959;SDS011;1994;48.640;8.894;2022-08-19T10:18:50;21.37;;;13.83;;
3959;SDS011;1994;48.640;8.894;2022-08-19T10:21:21;14.83;;;12.70;;
3959;SDS011;1994;48.640;8.894;2022-08-19T10:23:54;26.33;;;14.53;;
3959;SDS011;1994;48.640;8.894;2022-08-19T10:26:25;16.47;;;11.87;;
3959;SDS011;1994;48.640;8.894;2022-08-19T10:28:54;20.37;;;13.37;;
3959;SDS011;1994;48.640;8.894;2022-08-19T10:31:23;13.27;;;11.20;;
3959;SDS011;1994;48.640;8.894;2022-08-19T10:33:52;18.87;;;13.33;;
3959;SDS011;1994;48.640;8.894;2022-08-19T10:36:23;17.40;;;10.83;;
3959;SDS011;1994;48.640;8.894;2022-08-19T10:38:53;22.57;;;13.90;;
3959;SDS011;1994;48.640;8.894;2022-08-19T10:41:25;16.67;;;11.90;;
3959;SDS011;1994;48.640;8.894;2022-08-19T10:44:07;13.50;;;11.00;;
3959;SDS011;1994;48.640;8.894;2022-08-19T10:46:37;16.90;;;11.27;;
3959;SDS011;1994;48.640;8.894;2022-08-19T10:49:07;14.23;;;10.73;;
3959;SDS011;1994;48.640;8.894;2022-08-19T10:51:36;15.20;;;11.00;;
3959;SDS011;1994;48.640;8.894;2022-08-19T10:54:23;15.40;;;11.30;;
3959;SDS011;1994;48.640;8.894;2022-08-19T10:57:09;18.17;;;11.67;;
3959;SDS011;1994;48.640;8.894;2022-08-19T10:59:35;15.23;;;10.43;;
3959;SDS011;1994;48.640;8.894;2022-08-19T11:02:02;13.63;;;10.90;;
3959;SDS011;1994;48.640;8.894;2022-08-19T11:04:34;14.07;;;9.10;;
3959;SDS011;1994;48.640;8.894;2022-08-19T11:07:02;14.43;;;10.20;;
3959;SDS011;1994;48.640;8.894;2022-08-19T11:09:29;17.03;;;9.97;;
3959;SDS011;1994;48.640;8.894;2022-08-19T11:11:55;15.77;;;10.10;;
3959;SDS011;1994;48.640;8.894;2022-08-19T11:14:22;13.50;;;10.60;;
3959;SDS011;1994;48.640;8.894;2022-08-19T11:16:50;17.30;;;9.33;;
3959;SDS011;1994;48.640;8.894;2022-08-19T11:19:20;15.63;;;8.87;;
3959;SDS011;1994;48.640;8.894;2022-08-19T11:21:48;13.47;;;9.87;;
3959;SDS011;1994;48.640;8.894;2022-08-19T11:24:17;11.00;;;9.20;;
3959;SDS011;1994;48.640;8.894;2022-08-19T11:26:47;13.20;;;9.50;;
3959;SDS011;1994;48.640;8.894;2022-08-19T11:29:16;13.63;;;8.60;;
3959;SDS011;1994;48.640;8.894;2022-08-19T11:31:46;12.87;;;9.13;;
3959;SDS011;1994;48.640;8.894;2022-08-19T11:34:17;10.30;;;8.30;;
3959;SDS011;1994;48.640;8.894;2022-08-19T11:36:48;12.03;;;8.40;;
3959;SDS011;1994;48.640;8.894;2022-08-19T11:39:16;10.43;;;8.00;;
3959;SDS011;1994;48.640;8.894;2022-08-19T11:41:45;11.70;;;8.43;;
3959;SDS011;1994;48.640;8.894;2022-08-19T11:44:11;13.50;;;8.83;;
3959;SDS011;1994;48.640;8.894;2022-08-19T11:46:39;9.07;;;8.17;;
3959;SDS011;1994;48.640;8.894;2022-08-19T11:49:09;8.50;;;7.20;;
3959;SDS011;1994;48.640;8.894;2022-08-19T11:51:34;12.53;;;9.53;;
3959;SDS011;1994;48.640;8.894;2022-08-19T11:54:04;14.53;;;9.80;;
3959;SDS011;1994;48.640;8.894;2022-08-19T11:56:36;11.47;;;8.27;;
3959;SDS011;1994;48.640;8.894;2022-08-19T11:59:06;13.30;;;8.60;;
3959;SDS011;1994;48.640;8.894;2022-08-19T12:01:32;15.43;;;9.27;;
3959;SDS011;1994;48.640;8.894;2022-08-19T12:03:59;9.90;;;8.30;;
3959;SDS011;1994;48.640;8.894;2022-08-19T12:06:26;11.40;;;8.80;;
3959;SDS011;1994;48.640;8.894;2022-08-19T12:08:56;9.43;;;8.30;;
3959;SDS011;1994;48.640;8.894;2022-08-19T12:11:26;12.50;;;8.13;;
3959;SDS011;1994;48.640;8.894;2022-08-19T12:13:52;12.10;;;7.80;;
3959;SDS011;1994;48.640;8.894;2022-08-19T12:16:21;15.70;;;8.33;;
3959;SDS011;1994;48.640;8.894;2022-08-19T12:18:51;11.57;;;7.47;;
3959;SDS011;1994;48.640;8.894;2022-08-19T12:21:19;8.73;;;7.77;;
3959;SDS011;1994;48.640;8.894;2022-08-19T12:23:50;9.30;;;8.30;;
3959;SDS011;1994;48.640;8.894;2022-08-19T12:26:16;9.80;;;8.30;;
3959;SDS011;1994;48.640;8.894;2022-08-19T12:28:43;8.70;;;7.80;;
3959;SDS011;1994;48.640;8.894;2022-08-19T12:31:12;9.10;;;7.10;;
3959;SDS011;1994;48.640;8.894;2022-08-19T12:33:39;9.20;;;6.80;;
3959;SDS011;1994;48.640;8.894;2022-08-19T12:36:07;8.23;;;7.33;;
3959;SDS011;1994;48.640;8.894;2022-08-19T12:38:38;8.17;;;6.70;;
3959;SDS011;1994;48.640;8.894;2022-08-19T12:41:05;8.70;;;6.80;;
3959;SDS011;1994;48.640;8.894;2022-08-19T12:43:34;7.67;;;6.97;;
3959;SDS011;1994;48.640;8.894;2022-08-19T12:46:01;8.43;;;7.40;;
3959;SDS011;1994;48.640;8.894;2022-08-19T12:48:29;11.77;;;7.97;;
3959;SDS011;1994;48.640;8.894;2022-08-19T12:50:55;9.30;;;7.90;;
3959;SDS011;1994;48.640;8.894;2022-08-19T12:53:22;7.83;;;7.03;;
3959;SDS011;1994;48.640;8.894;2022-08-19T12:55:56;9.30;;;8.13;;
3959;SDS011;1994;48.640;8.894;2022-08-19T12:58:24;7.60;;;6.83;;
3959;SDS011;1994;48.640;8.894;2022-08-19T13:00:51;7.47;;;6.30;;
3959;SDS011;1994;48.640;8.894;2022-08-19T13:03:17;10.50;;;7.70;;
3959;SDS011;1994;48.640;8.894;2022-08-19T13:05:43;7.50;;;6.83;;
3959;SDS011;1994;48.640;8.894;2022-08-19T13:08:09;10.23;;;6.80;;
3959;SDS011;1994;48.640;8.894;2022-08-19T13:10:36;8.17;;;7.27;;
3959;SDS011;1994;48.640;8.894;2022-08-19T13:13:06;9.63;;;7.63;;
3959;SDS011;1994;48.640;8.894;2022-08-19T13:15:35;8.53;;;6.87;;
3959;SDS011;1994;48.640;8.894;2022-08-19T13:18:07;7.97;;;7.20;;
3959;SDS011;1994;48.640;8.894;2022-08-19T13:20:35;9.97;;;8.90;;
3959;SDS011;1994;48.640;8.894;2022-08-19T13:23:05;10.17;;;8.50;;
3959;SDS011;1994;48.640;8.894;2022-08-19T13:25:32;9.97;;;8.20;;
3959;SDS011;1994;48.640;8.894;2022-08-19T13:27:58;9.87;;;8.87;;
3959;SDS011;1994;48.640;8.894;2022-08-19T13:30:25;11.80;;;10.07;;
3959;SDS011;1994;48.640;8.894;2022-08-19T13:33:10;14.23;;;10.13;;
3959;SDS011;1994;48.640;8.894;2022-08-19T13:35:36;11.43;;;9.07;;
3959;SDS011;1994;48.640;8.894;2022-08-19T13:38:11;9.70;;;8.43;;
3959;SDS011;1994;48.640;8.894;2022-08-19T13:40:39;12.20;;;10.37;;
3959;SDS011;1994;48.640;8.894;2022-08-19T13:43:06;13.37;;;9.03;;
3959;SDS011;1994;48.640;8.894;2022-08-19T13:45:34;10.93;;;9.47;;
3959;SDS011;1994;48.640;8.894;2022-08-19T13:48:01;10.90;;;9.23;;
3959;SDS011;1994;48.640;8.894;2022-08-19T13:50:33;10.80;;;8.30;;
3959;SDS011;1994;48.640;8.894;2022-08-19T13:53:11;11.53;;;9.07;;
3959;SDS011;1994;48.640;8.894;2022-08-19T13:55:41;10.13;;;9.10;;
3959;SDS011;1994;48.640;8.894;2022-08-19T13:58:11;11.70;;;9.03;;
3959;SDS011;1994;48.640;8.894;2022-08-19T14:00:39;10.53;;;9.47;;
3959;SDS011;1994;48.640;8.894;2022-08-19T14:03:08;12.87;;;9.83;;
3959;SDS011;1994;48.640;8.894;2022-08-19T14:05:34;12.50;;;9.20;;
3959;SDS011;1994;48.640;8.894;2022-08-19T14:08:01;10.17;;;9.17;;
3959;SDS011;1994;48.640;8.894;2022-08-19T14:10:28;10.60;;;7.93;;
3959;SDS011;1994;48.640;8.894;2022-08-19T14:12:56;9.77;;;8.30;;
3959;SDS011;1994;48.640;8.894;2022-08-19T14:15:25;11.47;;;9.07;;
3959;SDS011;1994;48.640;8.894;2022-08-19T14:17:52;10.20;;;8.63;;
3959;SDS011;1994;48.640;8.894;2022-08-19T14:20:18;10.63;;;8.97;;
3959;SDS011;1994;48.640;8.894;2022-08-19T14:22:44;13.30;;;9.17;;
3959;SDS011;1994;48.640;8.894;2022-08-19T14:25:14;9.70;;;8.53;;
3959;SDS011;1994;48.640;8.894;2022-08-19T14:27:44;9.97;;;9.00;;
3959;SDS011;1994;48.640;8.894;2022-08-19T14:30:11;11.63;;;9.40;;
3959;SDS011;1994;48.640;8.894;2022-08-19T14:32:44;8.97;;;8.17;;
3959;SDS011;1994;48.640;8.894;2022-08-19T14:35:11;12.63;;;8.17;;
3959;SDS011;1994;48.640;8.894;2022-08-19T14:37:40;11.37;;;10.17;;
3959;SDS011;1994;48.640;8.894;2022-08-19T14:40:08;9.93;;;8.80;;
3959;SDS011;1994;48.640;8.894;2022-08-19T14:42:34;17.20;;;9.30;;
3959;SDS011;1994;48.640;8.894;2022-08-19T14:45:10;10.40;;;8.57;;
3959;SDS011;1994;48.640;8.894;2022-08-19T14:47:37;13.00;;;8.97;;
3959;SDS011;1994;48.640;8.894;2022-08-19T14:50:05;12.33;;;9.53;;
3959;SDS011;1994;48.640;8.894;2022-08-19T14:52:48;8.70;;;7.80;;
3959;SDS011;1994;48.640;8.894;2022-08-19T14:55:15;9.73;;;8.70;;
3959;SDS011;1994;48.640;8.894;2022-08-19T14:57:42;12.97;;;7.87;;
3959;SDS011;1994;48.640;8.894;2022-08-19T15:00:09;11.43;;;8.90;;
3959;SDS011;1994;48.640;8.894;2022-08-19T15:02:38;10.10;;;8.20;;
3959;SDS011;1994;48.640;8.894;2022-08-19T15:05:09;9.50;;;8.13;;
3959;SDS011;1994;48.640;8.894;2022-08-19T15:07:37;9.23;;;8.20;;
3959;SDS011;1994;48.640;8.894;2022-08-19T15:10:04;13.53;;;8.37;;
3959;SDS011;1994;48.640;8.894;2022-08-19T15:12:38;10.43;;;8.70;;
3959;SDS011;1994;48.640;8.894;2022-08-19T15:15:12;13.47;;;8.97;;
3959;SDS011;1994;48.640;8.894;2022-08-19T15:17:40;8.87;;;7.70;;
3959;SDS011;1994;48.640;8.894;2022-08-19T15:20:07;10.70;;;9.53;;